createdAt,value
2019-04-10T00:01:38.677Z,94550.86
2019-04-10T00:04:07.189Z,94547.01
2019-04-10T00:06:35.405Z,94541.01
2019-04-10T00:09:03.767Z,94541.86
2019-04-10T00:14:06.365Z,94552.57
2019-04-10T00:19:08.997Z,94549.00
2019-04-10T00:21:37.615Z,94554.95
2019-04-10T00:26:40.033Z,94549.70
2019-04-10T00:29:08.392Z,94550.30
2019-04-10T00:31:36.748Z,94550.45
2019-04-10T00:34:05.423Z,94555.04
2019-04-10T00:36:33.582Z,94549.41
2019-04-10T00:41:41.181Z,94547.50
2019-04-10T00:44:09.534Z,94539.56
2019-04-10T00:46:38.044Z,94541.13
2019-04-10T00:49:07.170Z,94542.80
2019-04-10T00:51:35.207Z,94540.70
2019-04-10T00:54:03.187Z,94539.58
2019-04-10T00:56:32.563Z,94535.70
2019-04-10T01:01:37.384Z,94534.39
2019-04-10T01:04:04.520Z,94537.59
2019-04-10T01:06:32.908Z,94533.45
2019-04-10T01:09:01.453Z,94537.30
2019-04-10T01:11:30.709Z,94533.31
2019-04-10T01:16:33.538Z,94533.33
2019-04-10T01:21:38.786Z,94531.59
2019-04-10T01:24:06.758Z,94534.88
2019-04-10T01:26:35.120Z,94529.32
2019-04-10T01:29:03.508Z,94531.39
2019-04-10T01:31:32.058Z,94529.25
2019-04-10T01:34:01.067Z,94526.16
2019-04-10T01:36:29.038Z,94523.61
2019-04-10T01:38:57.879Z,94517.67
2019-04-10T01:41:26.157Z,94518.00
2019-04-10T01:43:55.438Z,94515.59
2019-04-10T01:46:24.381Z,94514.08
2019-04-10T01:48:53.265Z,94514.48
2019-04-10T01:51:21.380Z,94507.34
2019-04-10T01:53:49.030Z,94505.00
2019-04-10T01:58:51.774Z,94508.13
2019-04-10T02:01:40.782Z,94508.61
2019-04-10T02:04:09.216Z,94507.17
2019-04-10T02:06:38.531Z,94505.28
2019-04-10T02:11:41.871Z,94508.16
2019-04-10T02:14:09.472Z,94508.27
2019-04-10T02:16:38.920Z,94506.29
2019-04-10T02:19:06.268Z,94501.41
2019-04-10T02:21:34.665Z,94507.68
2019-04-10T02:26:38.196Z,94506.46
2019-04-10T02:29:07.121Z,94506.41
2019-04-10T02:34:09.686Z,94501.04
2019-04-10T02:36:38.516Z,94502.17
2019-04-10T02:39:19.046Z,94495.85
2019-04-10T02:41:35.012Z,94499.19
2019-04-10T02:44:03.161Z,94500.57
2019-04-10T02:46:31.402Z,94497.09
2019-04-10T02:49:00.213Z,94494.05
2019-04-10T02:51:27.875Z,94498.05
2019-04-10T02:53:58.020Z,94496.77
2019-04-10T02:56:25.406Z,94501.87
2019-04-10T02:58:54.326Z,94500.89
2019-04-10T03:01:23.315Z,94502.02
2019-04-10T03:03:50.226Z,94498.72
2019-04-10T03:11:16.897Z,94492.27
2019-04-10T03:16:21.617Z,94491.89
2019-04-10T03:21:23.306Z,94495.84
2019-04-10T03:26:25.913Z,94501.89
2019-04-10T03:31:30.041Z,94498.45
2019-04-10T03:34:04.238Z,94497.16
2019-04-10T03:39:11.041Z,94501.66
2019-04-10T03:41:40.137Z,94498.52
2019-04-10T03:46:45.015Z,94508.59
2019-04-10T03:49:13.707Z,94502.20
2019-04-10T03:51:42.912Z,94501.28
2019-04-10T03:54:11.098Z,94505.10
2019-04-10T03:56:38.618Z,94505.11
2019-04-10T03:59:08.387Z,94509.03
2019-04-10T04:01:36.366Z,94509.40
2019-04-10T04:04:06.981Z,94510.52
2019-04-10T04:06:35.473Z,94511.07
2019-04-10T04:09:09.567Z,94506.16
2019-04-10T04:11:31.861Z,94509.12
2019-04-10T04:14:00.267Z,94511.09
2019-04-10T04:16:28.642Z,94508.27
2019-04-10T04:18:57.646Z,94510.30
2019-04-10T04:21:26.359Z,94505.14
2019-04-10T04:26:29.600Z,94502.16
2019-04-10T04:28:57.766Z,94505.05
2019-04-10T04:31:27.097Z,94504.70
2019-04-10T04:33:55.599Z,94504.09
2019-04-10T04:36:24.611Z,94506.41
2019-04-10T04:38:52.056Z,94505.24
2019-04-10T04:41:20.566Z,94510.02
2019-04-10T04:43:50.122Z,94508.23
2019-04-10T04:46:18.380Z,94511.06
2019-04-10T04:48:45.798Z,94510.64
2019-04-10T04:51:15.354Z,94513.61
2019-04-10T04:53:42.701Z,94511.72
2019-04-10T04:56:11.514Z,94511.05
2019-04-10T05:01:14.690Z,94516.33
2019-04-10T05:03:42.199Z,94521.28
2019-04-10T05:06:10.840Z,94522.66
2019-04-10T05:08:39.931Z,94524.08
2019-04-10T05:11:07.596Z,94531.81
2019-04-10T05:13:35.993Z,94528.67
2019-04-10T05:16:04.332Z,94532.02
2019-04-10T05:18:32.733Z,94529.29
2019-04-10T05:21:01.077Z,94531.92
2019-04-10T05:23:33.043Z,94529.88
2019-04-10T05:28:36.109Z,94531.26
2019-04-10T05:31:03.239Z,94527.62
2019-04-10T05:33:31.670Z,94527.45
2019-04-10T05:36:00.021Z,94528.49
2019-04-10T05:41:04.697Z,94533.32
2019-04-10T05:43:32.035Z,94536.23
2019-04-10T05:46:00.456Z,94539.23
2019-04-10T05:48:28.799Z,94540.06
2019-04-10T05:51:03.839Z,94539.22
2019-04-10T05:56:01.861Z,94544.19
2019-04-10T05:58:31.422Z,94549.25
2019-04-10T06:00:58.833Z,94547.70
2019-04-10T06:03:26.941Z,94548.97
2019-04-10T06:05:56.335Z,94551.33
2019-04-10T06:11:00.974Z,94551.16
2019-04-10T06:13:29.312Z,94551.99
2019-04-10T06:15:57.747Z,94554.31
2019-04-10T06:18:27.070Z,94553.78
2019-04-10T06:20:54.690Z,94553.34
2019-04-10T06:25:58.454Z,94552.14
2019-04-10T06:28:27.906Z,94549.89
2019-04-10T06:30:55.001Z,94548.73
2019-04-10T06:33:24.152Z,94549.81
2019-04-10T06:35:53.079Z,94547.61
2019-04-10T06:38:22.914Z,94548.45
2019-04-10T06:40:50.345Z,94552.63
2019-04-10T06:43:19.118Z,94549.42
2019-04-10T06:45:48.218Z,94553.69
2019-04-10T06:48:15.600Z,94552.89
2019-04-10T06:50:44.766Z,94547.87
2019-04-10T06:53:15.780Z,94549.77
2019-04-10T06:55:42.596Z,94551.39
2019-04-10T06:58:10.135Z,94554.19
2019-04-10T07:00:39.063Z,94552.02
2019-04-10T07:03:06.911Z,94557.00
2019-04-10T07:05:41.412Z,94562.22
2019-04-10T07:08:12.448Z,94564.79
2019-04-10T07:10:44.781Z,94566.31
2019-04-10T07:13:04.260Z,94567.52
2019-04-10T07:18:03.288Z,94569.06
2019-04-10T07:20:31.700Z,94567.57
2019-04-10T07:23:00.048Z,94568.27
2019-04-10T07:25:28.406Z,94567.58
2019-04-10T07:27:56.831Z,94566.67
2019-04-10T07:32:59.438Z,94567.16
2019-04-10T07:38:02.125Z,94567.20
2019-04-10T07:43:06.268Z,94576.01
2019-04-10T07:45:35.413Z,94576.66
2019-04-10T07:48:03.116Z,94576.19
2019-04-10T07:50:31.504Z,94575.16
2019-04-10T07:52:59.901Z,94573.45
2019-04-10T07:55:29.308Z,94576.99
2019-04-10T07:57:59.263Z,94585.97
2019-04-10T08:03:01.224Z,94582.75
2019-04-10T08:05:29.735Z,94584.22
2019-04-10T08:07:59.057Z,94588.93
2019-04-10T08:13:00.788Z,94597.08
2019-04-10T08:15:29.512Z,94603.57
2019-04-10T08:20:32.707Z,94597.27
2019-04-10T08:25:35.294Z,94599.73
2019-04-10T08:28:03.078Z,94599.67
2019-04-10T08:30:32.146Z,94603.84
2019-04-10T08:33:01.607Z,94604.09
2019-04-10T08:38:03.334Z,94610.41
2019-04-10T08:40:30.772Z,94609.59
2019-04-10T08:50:42.035Z,94612.02
2019-04-10T08:53:10.399Z,94611.30
2019-04-10T08:55:39.959Z,94609.64
2019-04-10T08:58:08.235Z,94609.93
2019-04-10T09:00:36.415Z,94603.75
2019-04-10T09:05:40.478Z,94609.30
2019-04-10T09:10:43.146Z,94608.70
2019-04-10T09:13:12.470Z,94612.86
2019-04-10T09:15:40.250Z,94618.64
2019-04-10T09:18:11.088Z,94610.34
2019-04-10T09:23:36.260Z,94617.02
2019-04-10T09:25:39.583Z,94621.34
2019-04-10T09:28:08.501Z,94618.80
2019-04-10T09:30:37.240Z,94615.58
2019-04-10T09:33:16.043Z,94619.61
2019-04-10T09:38:10.570Z,94616.85
2019-04-10T09:40:38.833Z,94619.24
2019-04-10T09:43:07.371Z,94623.59
2019-04-10T09:48:10.634Z,94617.66
2019-04-10T09:50:38.275Z,94615.77
2019-04-10T09:53:06.648Z,94619.44
2019-04-10T09:55:35.025Z,94621.24
2019-04-10T09:58:03.468Z,94621.70
2019-04-10T10:00:31.906Z,94616.52
2019-04-10T10:03:01.516Z,94622.88
2019-04-10T10:05:30.586Z,94622.63
2019-04-10T10:07:58.052Z,94628.29
2019-04-10T10:10:26.236Z,94621.72
2019-04-10T10:18:05.379Z,94620.37
2019-04-10T10:20:35.607Z,94618.45
2019-04-10T10:23:03.340Z,94615.85
2019-04-10T10:25:31.409Z,94620.45
2019-04-10T10:28:00.116Z,94625.88
2019-04-10T10:30:28.456Z,94622.60
2019-04-10T10:32:57.260Z,94624.27
2019-04-10T10:37:59.409Z,94629.08
2019-04-10T10:40:27.817Z,94629.92
2019-04-10T10:45:31.129Z,94631.08
2019-04-10T10:47:59.320Z,94633.81
2019-04-10T10:50:28.916Z,94630.00
2019-04-10T10:52:56.080Z,94635.33
2019-04-10T10:57:59.670Z,94631.23
2019-04-10T11:00:27.981Z,94629.68
2019-04-10T11:05:31.852Z,94628.87
2019-04-10T11:07:59.883Z,94629.48
2019-04-10T11:10:27.659Z,94630.98
2019-04-10T11:12:55.858Z,94639.00
2019-04-10T11:17:58.437Z,94630.59
2019-04-10T11:23:01.778Z,94632.75
2019-04-10T11:25:30.081Z,94632.95
2019-04-10T11:28:00.078Z,94637.39
2019-04-10T11:30:28.609Z,94633.64
2019-04-10T11:32:55.688Z,94635.02
2019-04-10T11:38:02.933Z,94634.33
2019-04-10T11:43:05.333Z,94631.16
2019-04-10T11:48:10.459Z,94632.55
2019-04-10T11:50:38.796Z,94632.52
2019-04-10T11:53:10.308Z,94630.22
2019-04-10T12:00:47.444Z,94631.62
2019-04-10T12:03:10.043Z,94632.64
2019-04-10T12:05:36.679Z,94633.89
2019-04-10T12:08:28.044Z,94638.77
2019-04-10T12:15:38.635Z,94631.92
2019-04-10T12:18:06.650Z,94636.72
2019-04-10T12:25:43.543Z,94637.23
2019-04-10T12:28:12.011Z,94640.99
2019-04-10T12:30:41.592Z,94643.00
2019-04-10T12:33:09.571Z,94645.17
2019-04-10T12:38:13.228Z,94645.92
2019-04-10T12:40:40.486Z,94645.19
2019-04-10T12:43:08.531Z,94643.72
2019-04-10T12:48:10.825Z,94639.92
2019-04-10T12:50:39.194Z,94639.48
2019-04-10T12:53:07.636Z,94636.45
2019-04-10T12:58:17.257Z,94638.66
2019-04-10T13:00:42.886Z,94638.73
2019-04-10T13:03:11.170Z,94640.91
2019-04-10T13:05:39.266Z,94640.77
2019-04-10T13:15:51.792Z,94635.75
2019-04-10T13:18:18.891Z,94636.34
2019-04-10T13:20:48.349Z,94634.55
2019-04-10T13:25:58.141Z,94639.62
2019-04-10T13:30:57.804Z,94638.13
2019-04-10T13:33:24.608Z,94642.14
2019-04-10T13:35:53.361Z,94641.25
2019-04-10T13:38:26.607Z,94642.21
2019-04-10T13:40:50.165Z,94641.70
2019-04-10T13:43:18.000Z,94644.12
2019-04-10T13:45:46.164Z,94643.63
2019-04-10T13:48:14.589Z,94641.41
2019-04-10T13:53:17.537Z,94647.53
2019-04-10T13:58:22.000Z,94641.81
2019-04-10T14:00:52.116Z,94641.19
2019-04-10T14:05:57.033Z,94644.67
2019-04-10T14:13:32.965Z,94643.72
2019-04-10T14:16:01.324Z,94646.91
2019-04-10T14:18:35.252Z,94651.30
2019-04-10T14:21:09.724Z,94656.95
2019-04-10T14:28:40.912Z,94657.78
2019-04-10T14:33:49.350Z,94661.91
2019-04-10T14:36:18.012Z,94663.00
2019-04-10T14:38:46.084Z,94662.50
2019-04-10T14:41:14.465Z,94665.38
2019-04-10T14:43:45.122Z,94661.44
2019-04-10T14:48:46.711Z,94665.52
2019-04-10T14:51:14.959Z,94667.25
2019-04-10T14:53:44.250Z,94668.77
2019-04-10T14:56:15.588Z,94672.76
2019-04-10T14:58:42.952Z,94672.09
2019-04-10T15:01:11.554Z,94673.64
2019-04-10T15:03:40.387Z,94675.29
2019-04-10T15:06:09.067Z,94673.14
2019-04-10T15:08:36.585Z,94672.47
2019-04-10T15:13:40.339Z,94677.39
2019-04-10T15:16:09.478Z,94673.88
2019-04-10T15:18:37.844Z,94677.33
2019-04-10T15:21:07.037Z,94680.72
2019-04-10T15:23:35.859Z,94681.48
2019-04-10T15:28:37.772Z,94687.14
2019-04-10T15:31:06.848Z,94689.00
2019-04-10T15:33:35.232Z,94690.53
2019-04-10T15:36:03.907Z,94683.88
2019-04-10T15:38:31.295Z,94684.97
2019-04-10T15:41:00.815Z,94689.30
2019-04-10T15:43:28.031Z,94685.34
2019-04-10T15:48:30.794Z,94689.17
2019-04-10T15:53:34.427Z,94694.69
2019-04-10T15:56:01.754Z,94696.32
2019-04-10T15:58:31.095Z,94692.00
2019-04-10T16:06:08.144Z,94699.03
2019-04-10T16:08:36.474Z,94695.47
2019-04-10T16:11:06.028Z,94696.24
2019-04-10T16:13:36.659Z,94699.38
2019-04-10T16:18:57.473Z,94704.31
2019-04-10T16:21:26.956Z,94700.99
2019-04-10T16:23:56.262Z,94703.92
2019-04-10T16:26:23.800Z,94707.06
2019-04-10T16:28:52.149Z,94709.86
2019-04-10T16:31:21.534Z,94714.20
2019-04-10T16:33:50.499Z,94717.42
2019-04-10T16:36:19.282Z,94714.52
2019-04-10T16:38:47.055Z,94716.19
2019-04-10T16:43:49.308Z,94709.56
2019-04-10T16:46:17.755Z,94717.67
2019-04-10T16:48:46.265Z,94727.00
2019-04-10T16:56:23.873Z,94734.78
2019-04-10T16:58:52.264Z,94735.83
2019-04-10T17:01:20.612Z,94738.77
2019-04-10T17:03:49.743Z,94739.09
2019-04-10T17:06:17.807Z,94736.93
2019-04-10T17:11:23.013Z,94744.73
2019-04-10T17:13:50.899Z,94743.95
2019-04-10T17:16:19.822Z,94742.89
2019-04-10T17:18:47.591Z,94743.05
2019-04-10T17:21:15.557Z,94743.88
2019-04-10T17:23:44.866Z,94744.52
2019-04-10T17:26:12.937Z,94745.08
2019-04-10T17:28:40.886Z,94744.70
2019-04-10T17:31:09.245Z,94749.91
2019-04-10T17:33:38.406Z,94747.67
2019-04-10T17:36:05.984Z,94749.55
2019-04-10T17:41:09.179Z,94754.82
2019-04-10T17:43:38.091Z,94758.44
2019-04-10T17:46:07.038Z,94761.69
2019-04-10T17:48:37.246Z,94760.87
2019-04-10T17:51:03.640Z,94771.50
2019-04-10T17:53:31.645Z,94769.53
2019-04-10T17:56:00.167Z,94776.88
2019-04-10T18:01:03.836Z,94780.13
2019-04-10T18:06:05.336Z,94789.39
2019-04-10T18:08:34.649Z,94792.27
2019-04-10T18:13:36.386Z,94796.45
2019-04-10T18:18:40.065Z,94802.66
2019-04-10T18:23:41.893Z,94813.08
2019-04-10T18:28:44.251Z,94821.07
2019-04-10T18:31:12.597Z,94820.55
2019-04-10T18:33:41.060Z,94824.86
2019-04-10T18:36:09.414Z,94833.20
2019-04-10T18:38:37.845Z,94833.36
2019-04-10T18:41:08.569Z,94834.19
2019-04-10T18:46:14.333Z,94841.31
2019-04-10T18:48:38.901Z,94845.09
2019-04-10T18:51:09.153Z,94848.08
2019-04-10T18:53:35.214Z,94851.38
2019-04-10T18:56:03.490Z,94855.29
2019-04-10T18:58:34.230Z,94856.11
2019-04-10T19:03:50.257Z,94864.63
2019-04-10T19:09:18.396Z,94870.29
2019-04-10T19:14:16.503Z,94874.86
2019-04-10T19:21:53.782Z,94882.97
2019-04-10T19:24:21.914Z,94882.45
2019-04-10T19:26:50.078Z,94881.97
2019-04-10T19:29:18.493Z,94885.97
2019-04-10T19:34:21.218Z,94888.66
2019-04-10T19:39:24.446Z,94891.34
2019-04-10T19:41:53.853Z,94895.68
2019-04-10T19:44:21.452Z,94897.19
2019-04-10T19:46:50.163Z,94896.94
2019-04-10T19:49:18.330Z,94895.37
2019-04-10T19:51:46.759Z,94895.13
2019-04-10T19:54:15.726Z,94894.95
2019-04-10T19:59:18.684Z,94892.97
2019-04-10T20:01:46.481Z,94893.20
2019-04-10T20:04:14.536Z,94896.38
2019-04-10T20:06:42.802Z,94903.79
2019-04-10T20:09:11.123Z,94906.75
2019-04-10T20:11:45.293Z,94911.30
2019-04-10T20:14:08.946Z,94910.89
2019-04-10T20:16:39.506Z,94913.16
2019-04-10T20:19:07.549Z,94912.27
2019-04-10T20:24:10.396Z,94911.02
2019-04-10T20:26:39.118Z,94914.55
2019-04-10T20:29:06.990Z,94915.48
2019-04-10T20:31:35.332Z,94914.41
2019-04-10T20:36:38.906Z,94922.23
2019-04-10T20:39:07.625Z,94929.14
2019-04-10T20:41:45.961Z,94923.58
2019-04-10T20:44:03.759Z,94928.52
2019-04-10T20:46:31.777Z,94927.11
2019-04-10T20:49:01.308Z,94931.55
2019-04-10T20:51:30.484Z,94931.91
2019-04-10T20:53:58.136Z,94931.80
2019-04-10T20:56:26.576Z,94930.08
2019-04-10T20:58:56.000Z,94933.42
2019-04-10T21:01:24.559Z,94937.59
2019-04-10T21:03:52.698Z,94933.86
2019-04-10T21:06:21.089Z,94936.17
2019-04-10T21:08:50.326Z,94937.63
2019-04-10T21:11:17.757Z,94937.94
2019-04-10T21:13:46.649Z,94940.05
2019-04-10T21:16:15.581Z,94943.25
2019-04-10T21:18:44.204Z,94945.42
2019-04-10T21:23:46.491Z,94950.49
2019-04-10T21:26:14.421Z,94950.70
2019-04-10T21:28:43.687Z,94956.84
2019-04-10T21:31:16.064Z,94954.13
2019-04-10T21:36:39.209Z,94958.20
2019-04-10T21:39:07.346Z,94953.91
2019-04-10T21:41:35.466Z,94952.08
2019-04-10T21:46:38.873Z,94946.09
2019-04-10T21:51:44.787Z,94947.34
2019-04-10T21:54:12.209Z,94946.23
2019-04-10T21:56:40.930Z,94943.81
2019-04-10T21:59:09.072Z,94950.94
2019-04-10T22:01:38.088Z,94949.52
2019-04-10T22:04:06.291Z,94950.39
2019-04-10T22:06:45.869Z,94949.08
2019-04-10T22:09:21.032Z,94951.47
2019-04-10T22:11:50.617Z,94950.59
2019-04-10T22:14:19.222Z,94956.41
2019-04-10T22:16:48.199Z,94953.36
2019-04-10T22:19:16.742Z,94955.74
2019-04-10T22:21:44.119Z,94952.95
2019-04-10T22:24:13.580Z,94950.71
2019-04-10T22:26:40.855Z,94956.00
2019-04-10T22:29:10.659Z,94953.97
2019-04-10T22:31:37.724Z,94963.65
2019-04-10T22:34:07.338Z,94957.48
2019-04-10T22:36:35.512Z,94962.48
2019-04-10T22:39:04.725Z,94960.70
2019-04-10T22:41:33.811Z,94962.28
2019-04-10T22:44:01.204Z,94960.56
2019-04-10T22:46:30.091Z,94961.99
2019-04-10T22:48:58.427Z,94962.77
2019-04-10T22:51:27.084Z,94954.56
2019-04-10T22:56:31.497Z,94953.35
2019-04-10T22:58:59.667Z,94951.77
2019-04-10T23:01:27.217Z,94949.06
2019-04-10T23:06:29.812Z,94942.38
2019-04-10T23:08:58.149Z,94945.95
2019-04-10T23:14:04.599Z,94939.89
2019-04-10T23:16:32.443Z,94941.73
2019-04-10T23:19:01.558Z,94944.28
2019-04-10T23:21:29.025Z,94944.69
2019-04-10T23:23:57.368Z,94946.27
2019-04-10T23:26:25.959Z,94946.31
2019-04-10T23:28:54.062Z,94943.58
2019-04-10T23:31:23.654Z,94944.47
2019-04-10T23:33:50.976Z,94950.35
2019-04-10T23:36:20.235Z,94949.70
2019-04-10T23:38:47.957Z,94947.28
2019-04-10T23:41:17.758Z,94952.58
2019-04-10T23:43:46.132Z,94952.77
2019-04-10T23:46:14.579Z,94954.51
2019-04-10T23:48:42.475Z,94951.68
2019-04-10T23:51:12.669Z,94949.66
2019-04-10T23:53:40.471Z,94948.66
2019-04-10T23:56:08.496Z,94949.58
2019-04-10T23:58:38.030Z,94950.97
